createdAt,value
2022-08-25T00:02:59.453Z,98297.00
2022-08-25T00:06:05.753Z,98321.91
2022-08-25T00:09:11.387Z,98302.22
2022-08-25T00:12:14.642Z,98311.09
2022-08-25T00:15:22.504Z,98306.63
2022-08-25T00:18:26.203Z,98313.06
2022-08-25T00:21:31.546Z,98309.34
2022-08-25T00:24:36.509Z,98308.81
2022-08-25T00:27:39.772Z,98294.88
2022-08-25T00:30:43.523Z,98303.91
2022-08-25T00:33:48.853Z,98290.47
2022-08-25T00:36:53.098Z,98301.16
2022-08-25T00:39:58.587Z,98307.84
2022-08-25T00:43:06.026Z,98310.13
2022-08-25T00:46:21.540Z,98308.19
2022-08-25T00:49:29.976Z,98300.78
2022-08-25T00:52:39.391Z,98311.13
2022-08-25T00:55:46.245Z,98309.06
2022-08-25T00:58:49.635Z,98309.72
2022-08-25T01:02:00.909Z,98307.00
2022-08-25T01:05:05.197Z,98303.00
2022-08-25T01:08:10.174Z,98310.56
2022-08-25T01:11:18.254Z,98304.19
2022-08-25T01:14:29.023Z,98269.66
2022-08-25T01:17:36.557Z,98294.47
2022-08-25T01:20:40.037Z,98303.66
2022-08-25T01:23:44.899Z,98301.25
2022-08-25T01:26:48.488Z,98301.38
2022-08-25T01:29:51.894Z,98286.78
2022-08-25T01:32:55.471Z,98296.09
2022-08-25T01:35:58.674Z,98301.25
2022-08-25T01:39:04.393Z,98297.56
2022-08-25T01:42:21.230Z,98297.63
2022-08-25T01:45:24.673Z,98291.91
2022-08-25T01:48:28.813Z,98284.22
2022-08-25T01:51:43.354Z,98291.16
2022-08-25T01:54:48.601Z,98297.72
2022-08-25T01:57:51.848Z,98298.63
2022-08-25T02:00:57.563Z,98293.03
2022-08-25T02:04:01.050Z,98303.63
2022-08-25T02:07:08.302Z,98299.75
2022-08-25T02:10:14.748Z,98303.78
2022-08-25T02:13:18.701Z,98278.09
2022-08-25T02:16:25.792Z,98299.56
2022-08-25T02:19:31.001Z,98300.19
2022-08-25T02:22:39.260Z,98285.25
2022-08-25T02:25:48.362Z,98301.28
2022-08-25T02:28:52.854Z,98298.78
2022-08-25T02:31:56.080Z,98296.25
2022-08-25T02:34:59.261Z,98268.13
2022-08-25T02:38:02.976Z,98290.69
2022-08-25T02:41:13.948Z,98281.28
2022-08-25T02:44:17.253Z,98272.97
2022-08-25T02:47:40.313Z,98275.84
2022-08-25T02:50:48.048Z,98277.63
2022-08-25T02:53:51.629Z,98271.09
2022-08-25T02:56:56.421Z,98276.47
2022-08-25T02:59:59.938Z,98277.72
2022-08-25T03:03:03.462Z,98280.81
2022-08-25T03:06:07.545Z,98280.81
2022-08-25T03:09:11.118Z,98276.88
2022-08-25T03:12:17.065Z,98277.19
2022-08-25T03:15:20.707Z,98273.94
2022-08-25T03:18:24.585Z,98274.00
2022-08-25T03:21:30.144Z,98277.00
2022-08-25T03:24:33.760Z,98281.09
2022-08-25T03:27:37.374Z,98271.47
2022-08-25T03:34:29.707Z,98287.88
2022-08-25T03:37:33.236Z,98294.50
2022-08-25T03:40:37.141Z,98290.50
2022-08-25T03:43:40.542Z,98290.59
2022-08-25T03:46:46.769Z,98274.94
2022-08-25T03:49:51.717Z,98285.66
2022-08-25T03:52:56.651Z,98251.91
2022-08-25T03:55:59.848Z,98282.84
2022-08-25T03:59:03.659Z,98284.34
2022-08-25T04:02:07.829Z,98277.34
2022-08-25T04:05:12.973Z,98288.63
2022-08-25T04:08:19.495Z,98274.94
2022-08-25T04:11:24.324Z,98272.34
2022-08-25T04:14:28.045Z,98252.13
2022-08-25T04:17:31.360Z,98261.91
2022-08-25T04:20:35.975Z,98263.19
2022-08-25T04:23:41.754Z,98263.28
2022-08-25T04:26:48.203Z,98259.28
2022-08-25T04:29:51.447Z,98270.53
2022-08-25T04:32:54.832Z,98271.09
2022-08-25T04:35:59.851Z,98273.44
2022-08-25T04:39:04.035Z,98280.47
2022-08-25T04:42:07.707Z,98283.78
2022-08-25T04:45:11.015Z,98281.44
2022-08-25T04:48:15.703Z,98238.50
2022-08-25T04:51:25.255Z,98285.59
2022-08-25T04:54:28.733Z,98287.16
2022-08-25T04:57:41.308Z,98283.44
2022-08-25T05:00:44.782Z,98290.63
2022-08-25T05:03:53.922Z,98286.59
2022-08-25T05:06:58.890Z,98248.94
2022-08-25T05:10:02.182Z,98292.38
2022-08-25T05:13:05.915Z,98289.38
2022-08-25T05:16:12.351Z,98283.63
2022-08-25T05:19:15.664Z,98275.69
2022-08-25T05:22:20.380Z,98271.16
2022-08-25T05:25:26.281Z,98265.97
2022-08-25T05:28:29.524Z,98272.28
2022-08-25T05:31:36.418Z,98249.88
2022-08-25T05:34:42.809Z,98262.91
2022-08-25T05:37:47.474Z,98276.34
2022-08-25T05:40:53.735Z,98243.88
2022-08-25T05:43:57.630Z,98219.19
2022-08-25T05:47:03.390Z,98248.84
2022-08-25T05:50:07.996Z,98218.84
2022-08-25T05:53:12.582Z,98266.31
2022-08-25T05:56:16.136Z,98264.88
2022-08-25T05:59:19.328Z,98261.19
2022-08-25T06:02:40.493Z,98256.47
2022-08-25T06:05:43.948Z,98257.69
2022-08-25T06:08:48.552Z,98239.84
2022-08-25T06:11:54.879Z,98249.78
2022-08-25T06:14:58.582Z,98218.06
2022-08-25T06:18:03.506Z,98207.00
2022-08-25T06:21:12.696Z,98208.06
2022-08-25T06:24:17.286Z,98210.31
2022-08-25T06:27:20.801Z,98215.69
2022-08-25T06:30:28.585Z,98221.06
2022-08-25T06:33:33.011Z,98188.59
2022-08-25T06:36:36.368Z,98215.44
2022-08-25T06:39:43.165Z,98198.59
2022-08-25T06:42:49.429Z,98224.59
2022-08-25T06:45:54.382Z,98227.31
2022-08-25T06:48:58.310Z,98216.75
2022-08-25T06:52:01.493Z,98237.41
2022-08-25T06:55:07.477Z,98226.78
2022-08-25T06:58:12.188Z,98220.69
2022-08-25T07:01:20.001Z,98203.97
2022-08-25T07:04:24.078Z,98218.41
2022-08-25T07:07:43.738Z,98223.44
2022-08-25T07:10:48.870Z,98228.69
2022-08-25T07:13:52.575Z,98217.25
2022-08-25T07:16:57.973Z,98184.97
2022-08-25T07:20:05.669Z,98183.47
2022-08-25T07:23:08.944Z,98190.78
2022-08-25T07:26:40.087Z,98175.31
2022-08-25T07:29:43.531Z,98166.53
2022-08-25T07:32:46.970Z,98172.25
2022-08-25T07:36:06.956Z,98171.44
2022-08-25T07:39:14.752Z,98165.69
2022-08-25T07:42:19.574Z,98157.78
2022-08-25T07:45:30.342Z,98158.13
2022-08-25T07:48:33.884Z,98170.06
2022-08-25T07:51:38.690Z,98154.53
2022-08-25T07:55:02.758Z,98165.03
2022-08-25T07:58:09.406Z,98169.28
2022-08-25T08:01:16.954Z,98165.84
2022-08-25T08:04:20.293Z,98162.25
2022-08-25T08:07:42.326Z,98145.25
2022-08-25T08:11:03.325Z,98162.72
2022-08-25T08:14:09.363Z,98162.72
2022-08-25T08:17:13.274Z,98161.09
2022-08-25T08:20:17.703Z,98159.00
2022-08-25T08:23:28.112Z,98155.88
2022-08-25T08:26:55.318Z,98151.94
2022-08-25T08:29:56.092Z,98157.94
2022-08-25T08:33:09.717Z,98145.56
2022-08-25T08:36:15.226Z,98142.56
2022-08-25T08:39:20.638Z,98145.06
2022-08-25T08:42:42.989Z,98137.13
2022-08-25T08:45:54.005Z,98131.00
2022-08-25T08:49:02.870Z,98124.31
2022-08-25T08:52:09.190Z,98101.63
2022-08-25T08:55:24.480Z,98115.63
2022-08-25T08:58:36.388Z,98112.69
2022-08-25T09:01:46.366Z,98118.88
2022-08-25T09:04:57.539Z,98109.91
2022-08-25T09:08:06.672Z,98110.50
2022-08-25T09:11:18.795Z,98111.91
2022-08-25T09:14:44.106Z,98109.97
2022-08-25T09:18:00.930Z,98115.25
2022-08-25T09:21:15.320Z,98109.78
2022-08-25T09:24:37.433Z,98107.13
2022-08-25T09:27:47.226Z,98103.47
2022-08-25T09:34:33.563Z,98105.13
2022-08-25T09:37:36.775Z,98099.34
2022-08-25T09:40:42.526Z,98106.09
2022-08-25T09:43:54.484Z,98090.88
2022-08-25T09:47:02.763Z,98090.16
2022-08-25T09:50:18.410Z,98084.94
2022-08-25T09:53:23.458Z,98062.53
2022-08-25T09:56:28.893Z,98065.66
2022-08-25T09:59:35.718Z,98079.28
2022-08-25T10:02:39.691Z,98089.88
2022-08-25T10:06:07.740Z,98070.97
2022-08-25T10:09:29.386Z,98072.28
2022-08-25T10:12:42.301Z,98068.97
2022-08-25T10:15:48.506Z,98066.84
2022-08-25T10:19:08.005Z,98050.97
2022-08-25T10:22:24.380Z,98044.41
2022-08-25T10:25:30.852Z,98041.44
2022-08-25T10:28:42.592Z,98036.06
2022-08-25T10:31:51.938Z,98032.50
2022-08-25T10:34:56.599Z,98024.72
2022-08-25T10:38:10.050Z,98015.63
2022-08-25T10:41:36.929Z,98017.88
2022-08-25T10:45:09.921Z,98011.81
2022-08-25T10:48:38.027Z,98012.28
2022-08-25T10:51:55.355Z,98003.00
2022-08-25T10:55:09.575Z,98000.84
2022-08-25T10:58:24.745Z,97989.41
2022-08-25T11:01:46.128Z,97983.13
2022-08-25T11:04:56.780Z,97994.97
2022-08-25T11:08:07.735Z,97990.16
2022-08-25T11:11:21.437Z,97989.16
2022-08-25T11:14:30.368Z,97986.53
2022-08-25T11:17:44.055Z,97991.56
2022-08-25T11:21:02.958Z,97976.84
2022-08-25T11:24:24.686Z,97975.06
2022-08-25T11:27:38.050Z,97975.41
2022-08-25T11:30:44.500Z,97975.16
2022-08-25T11:33:51.132Z,97979.53
2022-08-25T11:37:00.943Z,97974.75
2022-08-25T11:40:28.762Z,97964.50
2022-08-25T11:43:53.831Z,97967.75
2022-08-25T11:47:21.602Z,97966.72
2022-08-25T11:50:29.933Z,97975.53
2022-08-25T11:53:37.725Z,97968.63
2022-08-25T11:56:42.076Z,97959.13
2022-08-25T12:00:11.235Z,97962.84
2022-08-25T12:03:57.626Z,97961.94
2022-08-25T12:07:23.367Z,97954.97
2022-08-25T12:10:48.296Z,97961.09
2022-08-25T12:13:52.486Z,97961.50
2022-08-25T12:17:17.623Z,97954.13
2022-08-25T12:21:01.011Z,97953.28
2022-08-25T12:24:13.967Z,97933.78
2022-08-25T12:27:27.002Z,97953.78
2022-08-25T12:30:43.483Z,97951.69
2022-08-25T12:34:03.790Z,97947.72
2022-08-25T12:37:14.113Z,97946.72
2022-08-25T12:40:26.199Z,97946.63
2022-08-25T12:43:37.337Z,97917.66
2022-08-25T12:46:40.660Z,97924.50
2022-08-25T12:49:45.213Z,97936.44
2022-08-25T12:52:48.612Z,97938.53
2022-08-25T12:55:55.679Z,97919.00
2022-08-25T12:59:13.676Z,97934.69
2022-08-25T13:02:52.051Z,97941.41
2022-08-25T13:06:23.232Z,97939.91
2022-08-25T13:10:02.976Z,97930.28
2022-08-25T13:13:11.867Z,97933.94
2022-08-25T13:16:19.428Z,97919.63
2022-08-25T13:19:23.385Z,97926.75
2022-08-25T13:22:28.035Z,97911.47
2022-08-25T13:25:50.261Z,97911.88
2022-08-25T13:28:59.087Z,97913.59
2022-08-25T13:32:09.181Z,97894.38
2022-08-25T13:35:19.842Z,97901.00
2022-08-25T13:38:24.950Z,97906.00
2022-08-25T13:41:29.945Z,97901.34
2022-08-25T13:44:42.214Z,97901.25
2022-08-25T13:48:05.821Z,97898.28
2022-08-25T13:51:18.746Z,97897.84
2022-08-25T13:54:30.786Z,97883.81
2022-08-25T13:57:35.159Z,97877.69
2022-08-25T14:00:47.279Z,97869.56
2022-08-25T14:03:51.538Z,97874.28
2022-08-25T14:07:09.951Z,97877.63
2022-08-25T14:10:33.747Z,97868.84
2022-08-25T14:13:38.186Z,97856.19
2022-08-25T14:16:50.083Z,97860.44
2022-08-25T14:19:58.566Z,97858.56
2022-08-25T14:23:05.420Z,97837.97
2022-08-25T14:26:15.272Z,97855.94
2022-08-25T14:29:19.692Z,97856.53
2022-08-25T14:32:23.188Z,97869.38
2022-08-25T14:35:26.636Z,97853.22
2022-08-25T14:38:30.325Z,97851.69
2022-08-25T14:41:36.909Z,97856.56
2022-08-25T14:44:40.449Z,97851.06
2022-08-25T14:47:45.583Z,97858.78
2022-08-25T14:50:59.028Z,97857.97
2022-08-25T14:54:06.587Z,97840.63
2022-08-25T14:57:11.339Z,97825.19
2022-08-25T15:00:14.982Z,97839.81
2022-08-25T15:03:26.568Z,97840.31
2022-08-25T15:06:32.655Z,97832.88
2022-08-25T15:09:34.802Z,97822.63
2022-08-25T15:12:47.358Z,97824.22
2022-08-25T15:15:52.414Z,97822.94
2022-08-25T15:18:56.637Z,97820.31
2022-08-25T15:22:00.192Z,97816.25
2022-08-25T15:25:04.250Z,97817.91
2022-08-25T15:28:09.812Z,97805.09
2022-08-25T15:34:28.077Z,97815.72
2022-08-25T15:37:31.750Z,97821.72
2022-08-25T15:40:37.409Z,97819.56
2022-08-25T15:43:43.209Z,97815.88
2022-08-25T15:46:49.752Z,97814.00
2022-08-25T15:50:03.681Z,97818.38
2022-08-25T15:53:10.531Z,97806.25
2022-08-25T15:56:17.959Z,97811.13
2022-08-25T15:59:30.633Z,97798.81
2022-08-25T16:02:40.934Z,97795.53
2022-08-25T16:05:48.814Z,97799.50
2022-08-25T16:08:51.847Z,97795.19
2022-08-25T16:11:58.962Z,97804.34
2022-08-25T16:15:07.446Z,97768.72
2022-08-25T16:18:11.676Z,97801.22
2022-08-25T16:21:24.013Z,97798.28
2022-08-25T16:24:38.395Z,97789.94
2022-08-25T16:27:42.038Z,97798.41
2022-08-25T16:30:52.958Z,97765.47
2022-08-25T16:33:58.318Z,97795.91
2022-08-25T16:37:03.306Z,97797.44
2022-08-25T16:40:10.271Z,97793.69
2022-08-25T16:43:14.173Z,97725.72
2022-08-25T16:46:18.949Z,97786.28
2022-08-25T16:49:24.367Z,97780.78
2022-08-25T16:52:46.642Z,97779.88
2022-08-25T16:55:50.085Z,97776.81
2022-08-25T16:58:55.325Z,97775.47
2022-08-25T17:02:00.254Z,97769.13
2022-08-25T17:05:03.857Z,97773.56
2022-08-25T17:08:26.411Z,97778.13
2022-08-25T17:11:31.853Z,97711.13
2022-08-25T17:14:35.153Z,97768.06
2022-08-25T17:17:38.349Z,97777.13
2022-08-25T17:20:44.581Z,97749.97
2022-08-25T17:23:51.327Z,97768.44
2022-08-25T17:26:55.150Z,97752.25
2022-08-25T17:29:58.352Z,97763.81
2022-08-25T17:33:01.600Z,97762.88
2022-08-25T17:36:05.924Z,97759.13
2022-08-25T17:39:12.646Z,97760.44
2022-08-25T17:42:15.914Z,97737.00
2022-08-25T17:45:19.493Z,97761.28
2022-08-25T17:48:22.845Z,97759.72
2022-08-25T17:51:31.720Z,97758.16
2022-08-25T17:54:36.664Z,97764.81
2022-08-25T17:57:39.942Z,97758.06
2022-08-25T18:00:45.610Z,97757.06
2022-08-25T18:03:49.167Z,97759.13
2022-08-25T18:06:52.636Z,97760.81
2022-08-25T18:09:57.592Z,97767.25
2022-08-25T18:13:02.129Z,97767.72
2022-08-25T18:16:07.680Z,97757.81
2022-08-25T18:19:30.426Z,97767.75
2022-08-25T18:22:51.978Z,97766.78
2022-08-25T18:26:00.763Z,97774.75
2022-08-25T18:29:05.437Z,97767.44
2022-08-25T18:32:09.430Z,97770.44
2022-08-25T18:35:15.982Z,97766.47
2022-08-25T18:38:42.920Z,97778.91
2022-08-25T18:41:47.625Z,97775.22
2022-08-25T18:44:51.313Z,97775.06
2022-08-25T18:47:56.542Z,97782.97
2022-08-25T18:51:01.615Z,97783.94
2022-08-25T18:54:05.416Z,97762.09
2022-08-25T18:57:09.990Z,97798.28
2022-08-25T19:00:17.352Z,97789.19
2022-08-25T19:03:23.936Z,97766.94
2022-08-25T19:06:27.216Z,97710.63
2022-08-25T19:09:30.862Z,97799.84
2022-08-25T19:12:36.814Z,97799.84
2022-08-25T19:15:41.484Z,97800.16
2022-08-25T19:18:45.323Z,97799.63
2022-08-25T19:21:48.527Z,97797.31
2022-08-25T19:24:54.242Z,97805.56
2022-08-25T19:27:59.915Z,97808.66
2022-08-25T19:31:06.403Z,97801.00
2022-08-25T19:34:13.730Z,97800.13
2022-08-25T19:37:19.416Z,97796.25
2022-08-25T19:40:24.134Z,97790.47
2022-08-25T19:43:32.257Z,97796.34
2022-08-25T19:46:38.358Z,97797.28
2022-08-25T19:49:41.984Z,97777.47
2022-08-25T19:52:45.642Z,97796.56
2022-08-25T19:55:51.251Z,97802.22
2022-08-25T19:58:56.086Z,97803.97
2022-08-25T20:02:01.166Z,97803.19
2022-08-25T20:05:06.156Z,97803.69
2022-08-25T20:08:09.427Z,97797.75
2022-08-25T20:11:12.881Z,97800.97
2022-08-25T20:14:17.837Z,97795.78
2022-08-25T20:17:24.813Z,97793.56
2022-08-25T20:20:32.660Z,97792.25
2022-08-25T20:23:55.810Z,97787.44
2022-08-25T20:27:03.522Z,97790.84
2022-08-25T20:30:09.995Z,97796.13
2022-08-25T20:33:13.211Z,97799.44
2022-08-25T20:36:17.809Z,97804.56
2022-08-25T20:39:22.752Z,97807.41
2022-08-25T20:42:25.942Z,97810.72
2022-08-25T20:45:31.290Z,97816.22
2022-08-25T20:48:34.781Z,97811.81
2022-08-25T20:51:38.250Z,97814.38
2022-08-25T20:54:43.925Z,97822.72
2022-08-25T20:57:52.557Z,97827.75
2022-08-25T21:00:57.584Z,97806.84
2022-08-25T21:04:01.334Z,97831.38
2022-08-25T21:07:08.394Z,97831.44
2022-08-25T21:10:14.141Z,97826.56
2022-08-25T21:13:18.063Z,97831.91
2022-08-25T21:16:23.798Z,97816.59
2022-08-25T21:19:30.081Z,97821.34
2022-08-25T21:22:35.299Z,97830.78
2022-08-25T21:25:40.984Z,97811.97
2022-08-25T21:28:47.532Z,97822.16
2022-08-25T21:34:28.987Z,97830.78
2022-08-25T21:37:32.698Z,97838.09
2022-08-25T21:40:37.222Z,97833.53
2022-08-25T21:43:40.625Z,97831.63
2022-08-25T21:46:53.816Z,97834.63
2022-08-25T21:49:59.487Z,97836.88
2022-08-25T21:53:03.410Z,97837.25
2022-08-25T21:56:08.879Z,97833.91
2022-08-25T21:59:14.972Z,97812.34
2022-08-25T22:02:22.568Z,97835.31
2022-08-25T22:05:27.665Z,97834.91
2022-08-25T22:08:31.492Z,97836.72
2022-08-25T22:11:36.086Z,97820.41
2022-08-25T22:14:40.286Z,97832.28
2022-08-25T22:17:43.665Z,97829.13
2022-08-25T22:20:48.530Z,97845.59
2022-08-25T22:23:51.980Z,97845.88
2022-08-25T22:26:55.181Z,97849.75
2022-08-25T22:29:59.412Z,97843.63
2022-08-25T22:33:03.360Z,97854.84
2022-08-25T22:36:16.691Z,97835.28
2022-08-25T22:39:19.978Z,97846.97
2022-08-25T22:42:25.462Z,97855.91
2022-08-25T22:45:31.332Z,97849.72
2022-08-25T22:48:37.191Z,97839.13
2022-08-25T22:51:44.556Z,97861.44
2022-08-25T22:54:50.425Z,97858.25
2022-08-25T22:57:54.844Z,97866.38
2022-08-25T23:00:59.083Z,97867.63
2022-08-25T23:04:03.626Z,97844.84
2022-08-25T23:07:08.655Z,97868.09
2022-08-25T23:10:14.128Z,97854.88
2022-08-25T23:13:19.431Z,97872.22
2022-08-25T23:16:38.254Z,97868.00
2022-08-25T23:19:41.554Z,97867.50
2022-08-25T23:22:45.165Z,97861.63
2022-08-25T23:25:54.628Z,97860.56
2022-08-25T23:28:57.882Z,97858.59
2022-08-25T23:32:01.650Z,97850.66
2022-08-25T23:35:05.747Z,97846.88
2022-08-25T23:38:11.107Z,97844.34
2022-08-25T23:41:17.626Z,97838.44
2022-08-25T23:44:23.188Z,97840.66
2022-08-25T23:47:28.615Z,97841.88
2022-08-25T23:50:32.122Z,97835.56
2022-08-25T23:53:36.886Z,97848.53
2022-08-25T23:56:42.328Z,97798.44
2022-08-25T23:59:48.786Z,97856.25
